createdAt,value
2018-09-30T00:02:05.102Z,9.11
2018-09-30T00:04:34.011Z,9.06
2018-09-30T00:07:02.993Z,9.49
2018-09-30T00:09:32.427Z,9.35
2018-09-30T00:12:02.779Z,9.24
2018-09-30T00:14:31.796Z,9.25
2018-09-30T00:17:00.691Z,9.15
2018-09-30T00:19:29.696Z,9.17
2018-09-30T00:21:58.595Z,9.14
2018-09-30T00:24:32.938Z,9.29
2018-09-30T00:27:06.016Z,9.13
2018-09-30T00:29:34.982Z,8.97
2018-09-30T00:32:03.993Z,9.01
2018-09-30T00:34:33.060Z,9.13
2018-09-30T00:37:02.173Z,8.77
2018-09-30T00:39:31.119Z,8.73
2018-09-30T00:42:00.318Z,8.68
2018-09-30T00:44:29.670Z,8.81
2018-09-30T00:46:58.580Z,8.71
2018-09-30T00:49:27.477Z,8.77
2018-09-30T00:51:56.385Z,8.68
2018-09-30T00:54:25.318Z,8.82
2018-09-30T00:56:54.309Z,8.62
2018-09-30T00:59:23.367Z,8.59
2018-09-30T01:01:52.401Z,8.69
2018-09-30T01:04:21.315Z,8.51
2018-09-30T01:06:50.329Z,8.66
2018-09-30T01:09:19.342Z,8.43
2018-09-30T01:11:48.289Z,8.56
2018-09-30T01:14:17.221Z,8.70
2018-09-30T01:16:47.046Z,8.50
2018-09-30T01:19:15.995Z,8.68
2018-09-30T01:21:44.948Z,8.43
2018-09-30T01:24:13.991Z,8.62
2018-09-30T01:26:43.044Z,8.53
2018-09-30T01:29:12.828Z,8.37
2018-09-30T01:31:41.831Z,8.34
2018-09-30T01:34:10.766Z,8.50
2018-09-30T01:36:39.715Z,8.49
2018-09-30T01:39:08.694Z,8.53
2018-09-30T01:41:37.712Z,8.49
2018-09-30T01:44:06.657Z,8.70
2018-09-30T01:46:35.620Z,8.55
2018-09-30T01:49:04.618Z,8.47
2018-09-30T01:51:33.765Z,8.44
2018-09-30T01:54:02.732Z,8.36
2018-09-30T01:56:31.699Z,8.40
2018-09-30T01:59:00.695Z,8.44
2018-09-30T02:01:29.680Z,8.36
2018-09-30T02:03:58.671Z,8.43
2018-09-30T02:06:27.599Z,8.22
2018-09-30T02:08:56.542Z,8.37
2018-09-30T02:11:25.717Z,8.13
2018-09-30T02:13:54.696Z,7.99
2018-09-30T02:16:23.621Z,8.26
2018-09-30T02:18:52.746Z,8.19
2018-09-30T02:21:21.663Z,8.25
2018-09-30T02:23:50.629Z,8.43
2018-09-30T02:26:19.583Z,8.21
2018-09-30T02:28:48.534Z,8.21
2018-09-30T02:31:17.604Z,8.15
2018-09-30T02:33:46.600Z,8.25
2018-09-30T02:36:15.527Z,8.21
2018-09-30T02:38:44.485Z,8.32
2018-09-30T02:41:13.422Z,8.26
2018-09-30T02:43:42.359Z,8.33
2018-09-30T02:46:11.343Z,8.10
2018-09-30T02:48:40.300Z,8.15
2018-09-30T02:51:09.310Z,8.10
2018-09-30T02:53:38.369Z,8.10
2018-09-30T02:56:07.436Z,8.11
2018-09-30T02:58:36.416Z,7.99
2018-09-30T03:01:05.384Z,7.96
2018-09-30T03:03:34.306Z,7.98
2018-09-30T03:06:03.377Z,7.98
2018-09-30T03:08:37.813Z,7.90
2018-09-30T03:11:07.072Z,7.76
2018-09-30T03:13:36.007Z,8.02
2018-09-30T03:16:05.017Z,7.93
2018-09-30T03:18:34.003Z,7.86
2018-09-30T03:21:02.979Z,7.96
2018-09-30T03:23:31.969Z,7.91
2018-09-30T03:26:00.901Z,7.95
2018-09-30T03:28:29.875Z,7.96
2018-09-30T03:30:58.831Z,7.85
2018-09-30T03:33:27.837Z,7.99
2018-09-30T03:35:56.797Z,7.87
2018-09-30T03:38:25.852Z,7.96
2018-09-30T03:40:54.802Z,7.78
2018-09-30T03:43:23.784Z,7.71
2018-09-30T03:45:53.112Z,7.99
2018-09-30T03:48:22.092Z,7.91
2018-09-30T03:50:51.103Z,7.83
2018-09-30T03:53:20.033Z,7.95
2018-09-30T03:55:48.991Z,7.97
2018-09-30T03:58:17.910Z,7.74
2018-09-30T04:00:46.881Z,7.86
2018-09-30T04:03:15.901Z,7.88
2018-09-30T04:05:44.835Z,7.77
2018-09-30T04:08:13.780Z,7.68
2018-09-30T04:10:42.850Z,7.70
2018-09-30T04:13:11.979Z,7.69
2018-09-30T04:15:41.222Z,7.40
2018-09-30T04:18:10.192Z,7.52
2018-09-30T04:20:39.135Z,7.68
2018-09-30T04:23:08.069Z,7.57
2018-09-30T04:25:37.048Z,7.45
2018-09-30T04:28:06.353Z,7.54
2018-09-30T04:30:35.286Z,7.48
2018-09-30T04:33:04.389Z,7.39
2018-09-30T04:35:33.399Z,7.40
2018-09-30T04:38:02.309Z,7.33
2018-09-30T04:40:31.435Z,6.88
2018-09-30T04:43:00.391Z,6.63
2018-09-30T04:45:29.319Z,6.59
2018-09-30T04:47:58.276Z,6.80
2018-09-30T04:50:27.205Z,6.81
2018-09-30T04:52:56.126Z,6.79
2018-09-30T04:55:25.063Z,6.99
2018-09-30T04:57:53.984Z,6.85
2018-09-30T05:00:22.899Z,6.92
2018-09-30T05:02:51.873Z,6.94
2018-09-30T05:05:20.831Z,7.00
2018-09-30T05:07:49.750Z,6.86
2018-09-30T05:10:18.885Z,7.04
2018-09-30T05:12:47.827Z,6.82
2018-09-30T05:15:16.757Z,6.78
2018-09-30T05:17:45.738Z,6.89
2018-09-30T05:20:14.845Z,7.00
2018-09-30T05:22:43.771Z,6.69
2018-09-30T05:25:12.680Z,6.70
2018-09-30T05:27:41.624Z,6.77
2018-09-30T05:30:10.606Z,6.62
2018-09-30T05:32:39.579Z,6.48
2018-09-30T05:35:08.505Z,6.65
2018-09-30T05:37:37.493Z,6.69
2018-09-30T05:40:06.639Z,6.84
2018-09-30T05:42:35.634Z,6.86
2018-09-30T05:45:04.615Z,6.85
2018-09-30T05:47:33.593Z,6.85
2018-09-30T05:50:02.526Z,7.02
2018-09-30T05:52:31.470Z,6.74
2018-09-30T05:55:00.455Z,6.91
2018-09-30T05:57:29.389Z,7.02
2018-09-30T05:59:58.339Z,7.15
2018-09-30T06:02:27.356Z,7.15
2018-09-30T06:04:56.297Z,7.18
2018-09-30T06:07:25.215Z,7.21
2018-09-30T06:09:54.146Z,7.22
2018-09-30T06:12:23.126Z,7.13
2018-09-30T06:14:52.037Z,7.22
2018-09-30T06:17:25.302Z,7.37
2018-09-30T06:19:54.261Z,7.45
2018-09-30T06:22:23.253Z,7.49
2018-09-30T06:24:52.171Z,7.49
2018-09-30T06:27:21.156Z,7.64
2018-09-30T06:29:50.126Z,7.64
2018-09-30T06:32:19.054Z,7.68
2018-09-30T06:34:48.029Z,7.64
2018-09-30T06:37:17.087Z,7.64
2018-09-30T06:39:46.070Z,7.74
2018-09-30T06:42:15.040Z,7.65
2018-09-30T06:44:44.029Z,7.85
2018-09-30T06:47:12.998Z,7.86
2018-09-30T06:49:41.960Z,7.95
2018-09-30T06:52:10.967Z,7.92
2018-09-30T06:54:39.920Z,8.00
2018-09-30T06:57:08.914Z,8.14
2018-09-30T06:59:37.870Z,8.17
2018-09-30T07:02:07.024Z,8.37
2018-09-30T07:04:35.981Z,8.34
2018-09-30T07:07:04.952Z,8.36
2018-09-30T07:09:33.918Z,8.36
2018-09-30T07:12:03.799Z,8.51
2018-09-30T07:14:32.862Z,8.55
2018-09-30T07:17:01.980Z,8.53
2018-09-30T07:19:30.900Z,8.59
2018-09-30T07:21:59.825Z,8.58
2018-09-30T07:24:28.833Z,8.72
2018-09-30T07:26:57.800Z,8.69
2018-09-30T07:29:26.736Z,8.77
2018-09-30T07:31:55.820Z,8.90
2018-09-30T07:34:25.245Z,8.94
2018-09-30T07:36:54.154Z,9.02
2018-09-30T07:39:23.149Z,9.07
2018-09-30T07:41:52.137Z,9.09
2018-09-30T07:44:21.090Z,9.20
2018-09-30T07:46:50.083Z,9.31
2018-09-30T07:49:18.949Z,9.31
2018-09-30T07:51:47.950Z,9.42
2018-09-30T07:54:16.873Z,9.40
2018-09-30T07:56:45.817Z,9.52
2018-09-30T07:59:14.799Z,9.52
2018-09-30T08:01:43.738Z,9.60
2018-09-30T08:04:12.653Z,9.75
2018-09-30T08:06:41.621Z,9.74
2018-09-30T08:09:10.721Z,9.81
2018-09-30T08:11:39.687Z,9.80
2018-09-30T08:14:08.733Z,9.87
2018-09-30T08:16:37.837Z,9.92
2018-09-30T08:19:06.668Z,10.02
2018-09-30T08:21:35.621Z,10.17
2018-09-30T08:24:04.614Z,10.14
2018-09-30T08:26:33.631Z,10.34
2018-09-30T08:29:02.659Z,10.37
2018-09-30T08:31:31.833Z,10.45
2018-09-30T08:34:00.798Z,10.49
2018-09-30T08:36:29.772Z,10.58
2018-09-30T08:38:58.778Z,10.61
2018-09-30T08:41:27.735Z,10.64
2018-09-30T08:43:56.858Z,10.53
2018-09-30T08:46:25.782Z,10.70
2018-09-30T08:48:54.767Z,10.71
2018-09-30T08:51:23.698Z,10.98
2018-09-30T08:53:52.729Z,11.07
2018-09-30T08:56:21.670Z,11.10
2018-09-30T08:58:50.605Z,11.17
2018-09-30T09:01:19.581Z,11.03
2018-09-30T09:03:48.561Z,11.18
2018-09-30T09:06:17.513Z,11.22
2018-09-30T09:08:46.454Z,11.28
2018-09-30T09:11:15.486Z,11.28
2018-09-30T09:13:44.459Z,11.23
2018-09-30T09:16:13.556Z,11.51
2018-09-30T09:18:42.547Z,11.57
2018-09-30T09:21:11.469Z,11.49
2018-09-30T09:23:40.448Z,11.63
2018-09-30T09:26:09.373Z,11.73
2018-09-30T09:28:38.335Z,11.80
2018-09-30T09:31:07.277Z,11.90
2018-09-30T09:33:36.240Z,11.82
2018-09-30T09:36:05.297Z,11.77
2018-09-30T09:38:34.272Z,12.05
2018-09-30T09:41:03.321Z,11.92
2018-09-30T09:43:32.319Z,11.93
2018-09-30T09:46:01.318Z,12.24
2018-09-30T09:48:30.249Z,12.41
2018-09-30T09:50:59.237Z,12.14
2018-09-30T09:53:28.212Z,12.38
2018-09-30T09:55:57.191Z,12.22
2018-09-30T09:58:26.180Z,12.25
2018-09-30T10:00:55.257Z,12.17
2018-09-30T10:03:24.580Z,12.45
2018-09-30T10:05:53.574Z,12.35
2018-09-30T10:08:22.608Z,12.53
2018-09-30T10:10:51.659Z,12.64
2018-09-30T10:13:20.718Z,12.88
2018-09-30T10:15:49.862Z,12.78
2018-09-30T10:18:18.850Z,12.74
2018-09-30T10:20:47.850Z,12.99
2018-09-30T10:23:16.875Z,12.91
2018-09-30T10:25:45.828Z,13.08
2018-09-30T10:28:14.834Z,12.96
2018-09-30T10:30:45.207Z,13.17
2018-09-30T10:33:14.177Z,13.39
2018-09-30T10:35:43.187Z,13.25
2018-09-30T10:38:12.279Z,13.48
2018-09-30T10:40:41.278Z,13.30
2018-09-30T10:43:12.402Z,13.57
2018-09-30T10:45:44.415Z,13.48
2018-09-30T10:48:13.362Z,13.47
2018-09-30T10:50:42.325Z,14.01
2018-09-30T10:53:11.231Z,13.47
2018-09-30T10:55:40.165Z,13.66
2018-09-30T10:58:09.134Z,13.59
2018-09-30T11:00:38.084Z,13.84
2018-09-30T11:03:07.044Z,13.87
2018-09-30T11:05:35.949Z,14.26
2018-09-30T11:08:04.891Z,14.12
2018-09-30T11:10:33.839Z,14.06
2018-09-30T11:13:02.773Z,14.17
2018-09-30T11:15:31.756Z,14.27
2018-09-30T11:18:00.755Z,14.57
2018-09-30T11:20:29.674Z,14.47
2018-09-30T11:22:58.761Z,14.44
2018-09-30T11:25:27.690Z,14.56
2018-09-30T11:27:56.637Z,14.77
2018-09-30T11:30:25.583Z,14.77
2018-09-30T11:32:54.552Z,14.50
2018-09-30T11:35:23.470Z,14.48
2018-09-30T11:37:52.421Z,14.70
2018-09-30T11:40:21.358Z,14.80
2018-09-30T11:42:50.456Z,15.04
2018-09-30T11:45:19.427Z,14.93
2018-09-30T11:47:48.386Z,15.01
2018-09-30T11:50:17.372Z,15.29
2018-09-30T11:52:46.421Z,15.30
2018-09-30T11:55:15.323Z,15.35
2018-09-30T11:57:44.327Z,15.34
2018-09-30T12:00:13.213Z,15.07
2018-09-30T12:02:42.187Z,15.22
2018-09-30T12:05:11.311Z,15.26
2018-09-30T12:07:40.305Z,15.29
2018-09-30T12:10:09.285Z,15.13
2018-09-30T12:12:38.213Z,15.18
2018-09-30T12:15:07.160Z,15.14
2018-09-30T12:17:36.139Z,15.12
2018-09-30T12:20:05.167Z,15.32
2018-09-30T12:22:34.118Z,15.43
2018-09-30T12:25:03.065Z,15.54
2018-09-30T12:27:32.049Z,15.64
2018-09-30T12:30:00.981Z,15.70
2018-09-30T12:32:29.957Z,15.49
2018-09-30T12:34:58.888Z,15.54
2018-09-30T12:37:27.854Z,15.64
2018-09-30T12:39:56.940Z,15.51
2018-09-30T12:42:25.909Z,15.55
2018-09-30T12:44:54.833Z,15.70
2018-09-30T12:47:23.826Z,15.81
2018-09-30T12:49:52.737Z,15.71
2018-09-30T12:52:21.685Z,15.73
2018-09-30T12:54:50.666Z,15.89
2018-09-30T12:57:19.629Z,15.96
2018-09-30T12:59:48.594Z,15.85
2018-09-30T13:02:17.565Z,15.79
2018-09-30T13:04:46.530Z,16.05
2018-09-30T13:07:15.454Z,15.91
2018-09-30T13:09:44.368Z,16.01
2018-09-30T13:12:14.079Z,16.03
2018-09-30T13:14:43.873Z,15.88
2018-09-30T13:17:12.934Z,15.98
2018-09-30T13:19:41.876Z,15.92
2018-09-30T13:22:10.848Z,15.80
2018-09-30T13:24:39.765Z,15.90
2018-09-30T13:27:08.720Z,15.87
2018-09-30T13:29:37.662Z,15.87
2018-09-30T13:32:06.604Z,15.94
2018-09-30T13:34:35.580Z,15.79
2018-09-30T13:37:04.575Z,15.77
2018-09-30T13:39:33.499Z,15.75
2018-09-30T13:42:02.476Z,15.82
2018-09-30T13:44:31.414Z,15.82
2018-09-30T13:47:00.513Z,15.79
2018-09-30T13:49:29.431Z,15.80
2018-09-30T13:51:58.373Z,15.83
2018-09-30T13:54:27.324Z,15.83
2018-09-30T13:56:56.236Z,15.77
2018-09-30T13:59:25.198Z,15.84
2018-09-30T14:01:54.238Z,15.85
2018-09-30T14:04:23.188Z,15.83
2018-09-30T14:06:52.149Z,15.87
2018-09-30T14:09:21.126Z,15.88
2018-09-30T14:11:50.067Z,16.00
2018-09-30T14:14:19.033Z,15.95
2018-09-30T14:16:48.410Z,15.93
2018-09-30T14:19:17.338Z,15.89
2018-09-30T14:21:46.257Z,15.88
2018-09-30T14:24:15.305Z,15.95
2018-09-30T14:26:44.242Z,15.95
2018-09-30T14:29:13.175Z,15.89
2018-09-30T14:31:42.114Z,16.03
2018-09-30T14:34:11.091Z,15.97
2018-09-30T14:36:40.015Z,15.88
2018-09-30T14:39:11.232Z,15.89
2018-09-30T14:41:40.194Z,15.91
2018-09-30T14:44:09.716Z,15.94
2018-09-30T14:46:39.233Z,15.86
2018-09-30T14:49:08.199Z,15.88
2018-09-30T14:51:37.186Z,15.90
2018-09-30T14:54:06.292Z,15.85
2018-09-30T14:56:35.093Z,15.92
2018-09-30T14:59:04.076Z,15.89
2018-09-30T15:01:33.047Z,15.87
2018-09-30T15:04:02.010Z,15.84
2018-09-30T15:06:30.966Z,15.82
2018-09-30T15:08:59.945Z,15.91
2018-09-30T15:11:28.948Z,15.98
2018-09-30T15:13:57.937Z,15.90
2018-09-30T15:16:26.916Z,15.88
2018-09-30T15:18:55.874Z,15.93
2018-09-30T15:21:24.843Z,15.84
2018-09-30T15:23:53.862Z,15.81
2018-09-30T15:26:22.863Z,15.79
2018-09-30T15:28:51.873Z,15.75
2018-09-30T15:31:20.916Z,15.75
2018-09-30T15:33:49.914Z,15.83
2018-09-30T15:36:18.912Z,15.81
2018-09-30T15:38:48.585Z,15.83
2018-09-30T15:41:17.552Z,15.88
2018-09-30T15:43:46.564Z,15.80
2018-09-30T15:46:15.555Z,15.80
2018-09-30T15:48:44.499Z,15.83
2018-09-30T15:51:13.469Z,15.74
2018-09-30T15:53:42.445Z,15.75
2018-09-30T15:56:11.407Z,15.73
2018-09-30T15:58:40.364Z,15.68
2018-09-30T16:01:09.413Z,15.77
2018-09-30T16:03:38.439Z,15.74
2018-09-30T16:06:07.371Z,15.59
2018-09-30T16:08:36.358Z,15.65
2018-09-30T16:11:05.325Z,15.62
2018-09-30T16:13:34.265Z,15.60
2018-09-30T16:16:03.217Z,15.58
2018-09-30T16:18:32.203Z,15.59
2018-09-30T16:21:01.151Z,15.46
2018-09-30T16:23:30.067Z,15.55
2018-09-30T16:25:59.073Z,15.56
2018-09-30T16:28:27.997Z,15.38
2018-09-30T16:30:56.902Z,15.41
2018-09-30T16:33:25.849Z,15.40
2018-09-30T16:35:54.856Z,15.40
2018-09-30T16:38:23.851Z,15.36
2018-09-30T16:40:52.836Z,15.35
2018-09-30T16:43:21.775Z,15.31
2018-09-30T16:45:50.774Z,15.26
2018-09-30T16:48:19.738Z,15.18
2018-09-30T16:50:48.753Z,15.16
2018-09-30T16:53:17.717Z,15.11
2018-09-30T16:55:46.682Z,15.07
2018-09-30T16:58:15.619Z,15.03
2018-09-30T17:00:44.583Z,15.01
2018-09-30T17:03:13.524Z,14.94
2018-09-30T17:05:42.485Z,14.81
2018-09-30T17:08:11.426Z,14.87
2018-09-30T17:10:40.392Z,14.91
2018-09-30T17:13:09.393Z,14.81
2018-09-30T17:15:38.315Z,14.77
2018-09-30T17:18:07.266Z,14.66
2018-09-30T17:20:36.237Z,14.67
2018-09-30T17:23:05.229Z,14.64
2018-09-30T17:25:34.215Z,14.66
2018-09-30T17:28:03.191Z,14.69
2018-09-30T17:30:32.165Z,14.59
2018-09-30T17:33:01.161Z,14.54
2018-09-30T17:35:30.130Z,14.50
2018-09-30T17:37:59.184Z,14.53
2018-09-30T17:40:28.120Z,14.50
2018-09-30T17:42:57.155Z,14.50
2018-09-30T17:45:26.094Z,14.46
2018-09-30T17:47:55.227Z,14.46
2018-09-30T17:50:24.239Z,14.45
2018-09-30T17:52:53.237Z,14.59
2018-09-30T17:55:22.164Z,14.46
2018-09-30T17:57:55.565Z,14.44
2018-09-30T18:00:25.569Z,14.38
2018-09-30T18:02:54.521Z,14.25
2018-09-30T18:05:23.523Z,14.30
2018-09-30T18:07:52.521Z,14.31
2018-09-30T18:10:21.490Z,14.30
2018-09-30T18:12:51.499Z,14.19
2018-09-30T18:15:20.469Z,14.22
2018-09-30T18:17:49.435Z,14.15
2018-09-30T18:20:18.421Z,14.23
2018-09-30T18:22:47.344Z,14.18
2018-09-30T18:25:16.364Z,14.09
2018-09-30T18:27:45.287Z,14.23
2018-09-30T18:30:14.274Z,14.16
2018-09-30T18:32:43.234Z,14.10
2018-09-30T18:35:12.218Z,14.07
2018-09-30T18:37:41.220Z,14.11
2018-09-30T18:40:10.241Z,14.18
2018-09-30T18:42:39.152Z,14.10
2018-09-30T18:45:08.134Z,14.14
2018-09-30T18:47:37.083Z,14.08
2018-09-30T18:50:06.090Z,13.92
2018-09-30T18:52:35.093Z,13.86
2018-09-30T18:55:04.101Z,13.86
2018-09-30T18:57:33.127Z,13.88
2018-09-30T19:00:02.157Z,13.82
2018-09-30T19:02:31.186Z,13.93
2018-09-30T19:05:00.168Z,14.02
2018-09-30T19:07:29.109Z,13.69
2018-09-30T19:09:58.164Z,13.81
2018-09-30T19:12:27.139Z,13.78
2018-09-30T19:14:56.189Z,13.86
2018-09-30T19:17:25.100Z,13.72
2018-09-30T19:19:54.093Z,13.57
2018-09-30T19:22:23.090Z,13.50
2018-09-30T19:24:52.074Z,13.53
2018-09-30T19:27:21.072Z,13.52
2018-09-30T19:29:50.164Z,13.44
2018-09-30T19:32:19.107Z,13.51
2018-09-30T19:34:48.100Z,13.46
2018-09-30T19:37:17.028Z,13.47
2018-09-30T19:39:45.980Z,13.40
2018-09-30T19:42:15.004Z,13.40
2018-09-30T19:44:44.022Z,13.45
2018-09-30T19:47:12.974Z,13.16
2018-09-30T19:49:42.028Z,13.21
2018-09-30T19:52:11.688Z,13.31
2018-09-30T19:54:40.836Z,13.21
2018-09-30T19:57:09.775Z,13.23
2018-09-30T19:59:38.744Z,13.17
2018-09-30T20:02:08.186Z,13.17
2018-09-30T20:04:37.219Z,13.14
2018-09-30T20:07:06.186Z,13.18
2018-09-30T20:09:35.173Z,13.07
2018-09-30T20:12:04.054Z,13.09
2018-09-30T20:14:33.070Z,13.06
2018-09-30T20:17:02.104Z,12.95
2018-09-30T20:19:31.156Z,12.93
2018-09-30T20:22:00.095Z,13.04
2018-09-30T20:24:29.138Z,13.04
2018-09-30T20:26:58.078Z,13.00
2018-09-30T20:29:27.068Z,13.02
2018-09-30T20:31:56.036Z,13.19
2018-09-30T20:34:25.149Z,13.15
2018-09-30T20:36:54.099Z,12.97
2018-09-30T20:39:23.060Z,13.03
2018-09-30T20:41:51.945Z,12.97
2018-09-30T20:44:20.894Z,12.89
2018-09-30T20:46:49.867Z,12.98
2018-09-30T20:49:18.818Z,13.17
2018-09-30T20:51:47.748Z,13.26
2018-09-30T20:54:17.048Z,13.15
2018-09-30T20:56:46.378Z,13.09
2018-09-30T20:59:15.319Z,12.88
2018-09-30T21:01:44.247Z,13.02
2018-09-30T21:04:13.193Z,12.90
2018-09-30T21:06:43.355Z,13.05
2018-09-30T21:09:14.324Z,12.92
2018-09-30T21:11:43.329Z,12.97
2018-09-30T21:14:12.296Z,13.02
2018-09-30T21:16:41.250Z,12.85
2018-09-30T21:19:10.203Z,12.91
2018-09-30T21:21:39.133Z,12.97
2018-09-30T21:24:08.112Z,13.01
2018-09-30T21:26:37.012Z,12.88
2018-09-30T21:29:05.908Z,12.82
2018-09-30T21:31:34.871Z,12.72
2018-09-30T21:34:03.873Z,12.85
2018-09-30T21:36:32.834Z,12.60
2018-09-30T21:39:01.921Z,12.84
2018-09-30T21:41:31.680Z,12.55
2018-09-30T21:44:00.630Z,12.51
2018-09-30T21:46:29.556Z,12.54
2018-09-30T21:48:58.505Z,12.42
2018-09-30T21:51:27.463Z,12.60
2018-09-30T21:53:56.425Z,12.42
2018-09-30T21:56:25.345Z,12.50
2018-09-30T21:58:54.420Z,12.47
2018-09-30T22:01:23.652Z,12.41
2018-09-30T22:03:56.481Z,12.33
2018-09-30T22:06:27.314Z,12.39
2018-09-30T22:09:56.426Z,12.30
2018-09-30T22:12:25.397Z,12.33
2018-09-30T22:14:57.187Z,12.13
2018-09-30T22:17:26.970Z,12.25
2018-09-30T22:19:55.931Z,12.30
2018-09-30T22:22:24.876Z,12.25
2018-09-30T22:24:57.428Z,12.24
2018-09-30T22:27:27.308Z,12.14
2018-09-30T22:29:58.055Z,12.27
2018-09-30T22:32:27.841Z,12.25
2018-09-30T22:34:57.747Z,12.29
2018-09-30T22:37:26.729Z,12.39
2018-09-30T22:39:55.706Z,12.36
2018-09-30T22:42:24.808Z,12.36
2018-09-30T22:44:53.839Z,12.50
2018-09-30T22:47:22.911Z,12.40
2018-09-30T22:49:51.992Z,12.28
2018-09-30T22:52:20.995Z,12.21
2018-09-30T22:54:49.936Z,12.09
2018-09-30T22:57:18.876Z,12.13
2018-09-30T22:59:47.868Z,12.02
2018-09-30T23:02:16.785Z,11.96
2018-09-30T23:04:45.837Z,11.94
2018-09-30T23:07:14.701Z,11.97
2018-09-30T23:09:43.626Z,11.95
2018-09-30T23:12:12.560Z,11.99
2018-09-30T23:14:41.547Z,11.83
2018-09-30T23:17:10.808Z,11.89
2018-09-30T23:19:40.492Z,11.94
2018-09-30T23:22:09.404Z,11.85
2018-09-30T23:24:38.324Z,11.91
2018-09-30T23:27:07.283Z,11.99
2018-09-30T23:29:36.256Z,11.98
2018-09-30T23:32:05.165Z,12.20
2018-09-30T23:34:34.084Z,11.94
2018-09-30T23:37:03.093Z,12.03
2018-09-30T23:39:31.995Z,11.92
2018-09-30T23:42:00.942Z,12.01
2018-09-30T23:44:29.876Z,11.97
2018-09-30T23:46:58.865Z,11.91
2018-09-30T23:49:27.921Z,11.99
2018-09-30T23:51:56.840Z,12.03
2018-09-30T23:54:25.786Z,11.90
2018-09-30T23:56:54.729Z,11.54
2018-09-30T23:59:23.632Z,11.58
